Time;durP1;ratioP1;P1;durP2;ratioP2;P2;SDS_P1;SDS_P2;PMS_P1;PMS_P2;Temp;Humidity;BMP_temperature;BMP_pressure;BME280_temperature;BME280_humidity;BME280_pressure;Samples;Min_cycle;Max_cycle;Signal;HPM_P1;HPM_P2
2023/03/04 00:00:26;;;;;;;31.20;13.17;;;;;;;;;;5011496;28;20026;-75
2023/03/04 00:02:51;;;;;;;26.13;12.57;;;;;;;;;;5011373;28;20113;-74
2023/03/04 00:05:17;;;;;;;28.13;12.10;;;;;;;;;;5011953;28;20379;-75
2023/03/04 00:07:42;;;;;;;49.73;12.90;;;;;;;;;;5011369;28;20038;-75
2023/03/04 00:10:09;;;;;;;26.93;12.17;;;;;;;;;;5011603;28;20117;-76
2023/03/04 00:12:34;;;;;;;28.83;13.03;;;;;;;;;;5012843;28;20033;-74
2023/03/04 00:15:00;;;;;;;29.97;13.10;;;;;;;;;;5011479;28;20026;-76
2023/03/04 00:17:25;;;;;;;31.87;13.07;;;;;;;;;;5010876;28;20046;-76
2023/03/04 00:19:51;;;;;;;32.73;14.10;;;;;;;;;;5010841;28;20040;-75
2023/03/04 00:22:16;;;;;;;32.20;14.03;;;;;;;;;;5012379;28;20026;-74
2023/03/04 00:24:42;;;;;;;35.47;14.10;;;;;;;;;;5012252;28;20045;-73
2023/03/04 00:27:07;;;;;;;33.80;15.17;;;;;;;;;;5010765;28;20059;-74
2023/03/04 00:29:33;;;;;;;34.47;13.97;;;;;;;;;;5010440;28;20108;-74
2023/03/04 00:31:58;;;;;;;33.37;13.30;;;;;;;;;;5012295;28;20089;-74
2023/03/04 00:34:24;;;;;;;33.17;15.30;;;;;;;;;;5010811;28;20064;-74
2023/03/04 00:36:49;;;;;;;36.37;14.40;;;;;;;;;;5011038;28;20065;-75
2023/03/04 00:39:15;;;;;;;32.47;14.13;;;;;;;;;;5012218;28;20028;-74
2023/03/04 00:41:40;;;;;;;37.30;13.90;;;;;;;;;;5010699;28;20022;-75
2023/03/04 00:44:06;;;;;;;35.43;15.23;;;;;;;;;;5011056;28;20449;-75
2023/03/04 00:46:32;;;;;;;39.00;16.23;;;;;;;;;;5010632;28;20029;-75
2023/03/04 00:48:57;;;;;;;35.23;15.93;;;;;;;;;;5010370;28;20030;-76
2023/03/04 00:51:26;;;;;;;37.37;15.77;;;;;;;;;;5012397;28;20074;-78
2023/03/04 00:53:51;;;;;;;35.30;13.83;;;;;;;;;;5012062;28;20080;-77
2023/03/04 00:56:17;;;;;;;34.97;15.20;;;;;;;;;;5010590;28;20040;-75
2023/03/04 00:58:43;;;;;;;36.13;15.37;;;;;;;;;;5011906;28;20041;-75
2023/03/04 01:01:09;;;;;;;37.63;15.70;;;;;;;;;;5011128;28;20026;-74
2023/03/04 01:03:34;;;;;;;42.33;14.73;;;;;;;;;;5010789;28;20074;-74
2023/03/04 01:06:00;;;;;;;34.53;15.33;;;;;;;;;;5016414;28;20377;-75
2023/03/04 01:08:26;;;;;;;34.93;16.87;;;;;;;;;;5016038;28;20105;-75
2023/03/04 01:10:51;;;;;;;41.97;16.77;;;;;;;;;;5016193;28;20037;-75
2023/03/04 01:13:17;;;;;;;43.50;17.17;;;;;;;;;;5011638;28;20708;-75
2023/03/04 01:15:44;;;;;;;34.23;16.60;;;;;;;;;;5010398;28;20577;-76
2023/03/04 01:18:09;;;;;;;38.20;16.57;;;;;;;;;;5029366;28;20025;-74
2023/03/04 01:20:35;;;;;;;40.57;17.07;;;;;;;;;;5031147;28;20389;-74
2023/03/04 01:23:00;;;;;;;34.70;16.67;;;;;;;;;;5030179;28;20040;-74
2023/03/04 01:25:26;;;;;;;45.30;17.47;;;;;;;;;;5029480;28;20466;-74
2023/03/04 01:27:51;;;;;;;44.53;16.73;;;;;;;;;;5029622;28;20074;-74
2023/03/04 01:30:17;;;;;;;34.67;15.97;;;;;;;;;;5029169;28;20032;-75
2023/03/04 01:32:43;;;;;;;33.43;16.07;;;;;;;;;;5029299;28;20036;-74
2023/03/04 01:35:08;;;;;;;37.87;16.77;;;;;;;;;;5030670;28;20036;-74
2023/03/04 01:37:34;;;;;;;41.07;17.17;;;;;;;;;;5030538;28;20045;-74
2023/03/04 01:40:07;;;;;;;35.43;14.87;;;;;;;;;;5047167;28;20946;-74
2023/03/04 01:42:34;;;;;;;41.17;16.00;;;;;;;;;;5046598;28;20140;-74
2023/03/04 01:45:00;;;;;;;45.07;17.20;;;;;;;;;;5046523;28;20061;-74
2023/03/04 01:47:31;;;;;;;37.30;16.47;;;;;;;;;;5047564;28;20290;-74
2023/03/04 01:49:59;;;;;;;41.17;16.40;;;;;;;;;;5060374;28;20032;-73
2023/03/04 01:52:26;;;;;;;41.07;17.50;;;;;;;;;;5065253;28;20036;-74
2023/03/04 01:54:52;;;;;;;45.60;16.67;;;;;;;;;;5052377;28;20060;-73
2023/03/04 01:57:20;;;;;;;39.33;17.53;;;;;;;;;;5046785;28;20056;-73
2023/03/04 01:59:46;;;;;;;42.70;16.90;;;;;;;;;;5046240;28;20041;-74
2023/03/04 02:02:13;;;;;;;35.03;15.40;;;;;;;;;;5044829;28;20174;-74
2023/03/04 02:04:40;;;;;;;34.03;15.90;;;;;;;;;;5056078;28;20119;-73
2023/03/04 02:07:06;;;;;;;37.27;15.13;;;;;;;;;;5064973;28;20032;-73
2023/03/04 02:09:33;;;;;;;37.83;16.87;;;;;;;;;;5056714;28;20030;-73
2023/03/04 02:12:00;;;;;;;38.03;16.07;;;;;;;;;;5044862;28;20045;-72
2023/03/04 02:14:25;;;;;;;36.93;15.60;;;;;;;;;;5053259;28;20040;-74
2023/03/04 02:16:51;;;;;;;38.83;16.33;;;;;;;;;;5064418;28;20078;-73
2023/03/04 02:19:25;;;;;;;35.47;15.77;;;;;;;;;;5065777;28;20093;-73
2023/03/04 02:21:51;;;;;;;39.63;17.43;;;;;;;;;;5064717;28;20341;-74
2023/03/04 02:24:52;;;;;;;46.20;17.43;;;;;;;;;;5065556;28;20032;-73
2023/03/04 02:27:18;;;;;;;41.53;16.57;;;;;;;;;;5064039;28;20040;-72
2023/03/04 02:29:43;;;;;;;41.93;16.90;;;;;;;;;;5065507;28;20081;-73
2023/03/04 02:32:13;;;;;;;36.50;15.90;;;;;;;;;;5065622;28;20619;-72
2023/03/04 02:34:46;;;;;;;41.23;17.00;;;;;;;;;;5065659;28;20446;-73
2023/03/04 02:37:12;;;;;;;41.23;17.67;;;;;;;;;;5066451;28;20033;-72
2023/03/04 02:39:42;;;;;;;48.27;18.40;;;;;;;;;;5053086;28;20053;-72
2023/03/04 02:42:08;;;;;;;43.83;17.37;;;;;;;;;;5046589;28;20442;-75
2023/03/04 02:44:40;;;;;;;39.07;17.93;;;;;;;;;;5046297;28;20029;-73
2023/03/04 02:47:09;;;;;;;45.55;18.25;;;;;;;;;;5044671;28;20036;-75
2023/03/04 02:49:36;;;;;;;47.27;19.50;;;;;;;;;;5048458;28;20029;-74
2023/03/04 02:52:05;;;;;;;44.83;17.93;;;;;;;;;;5050954;28;20032;-74
2023/03/04 02:54:31;;;;;;;40.67;17.67;;;;;;;;;;5050467;28;20032;-74
2023/03/04 02:57:00;;;;;;;41.50;18.13;;;;;;;;;;5051276;28;20031;-74
2023/03/04 02:59:26;;;;;;;51.77;19.53;;;;;;;;;;5051853;28;20025;-74
2023/03/04 03:01:52;;;;;;;47.33;18.00;;;;;;;;;;5050449;28;20108;-74
2023/03/04 03:04:19;;;;;;;54.43;19.87;;;;;;;;;;5051209;28;20029;-74
2023/03/04 03:06:44;;;;;;;45.70;18.70;;;;;;;;;;5052548;28;20029;-74
2023/03/04 03:09:10;;;;;;;51.33;20.37;;;;;;;;;;5050674;28;20027;-72
2023/03/04 03:11:36;;;;;;;54.13;19.03;;;;;;;;;;5051719;28;20548;-73
2023/03/04 03:14:01;;;;;;;45.53;18.60;;;;;;;;;;5049999;28;20032;-74
2023/03/04 03:16:27;;;;;;;52.97;20.53;;;;;;;;;;5031553;28;20489;-74
2023/03/04 03:18:52;;;;;;;56.40;20.77;;;;;;;;;;5031485;28;20104;-73
2023/03/04 03:21:18;;;;;;;45.17;18.67;;;;;;;;;;5051600;28;20040;-74
2023/03/04 03:23:44;;;;;;;47.27;20.67;;;;;;;;;;5050120;28;20044;-73
2023/03/04 03:26:09;;;;;;;51.97;21.57;;;;;;;;;;5049965;28;20032;-74
2023/03/04 03:28:35;;;;;;;57.13;19.83;;;;;;;;;;5050769;28;20021;-74
2023/03/04 03:31:01;;;;;;;54.17;19.70;;;;;;;;;;5050973;28;20408;-73
2023/03/04 03:33:26;;;;;;;47.33;18.10;;;;;;;;;;5050789;28;20128;-74
2023/03/04 03:35:52;;;;;;;53.50;18.97;;;;;;;;;;5049401;28;20041;-73
2023/03/04 03:38:17;;;;;;;44.93;19.73;;;;;;;;;;5049968;28;20154;-74
2023/03/04 03:40:43;;;;;;;44.43;17.37;;;;;;;;;;5030126;28;20183;-74
2023/03/04 03:43:08;;;;;;;46.90;18.20;;;;;;;;;;5031358;28;20084;-73
2023/03/04 03:45:34;;;;;;;55.90;19.23;;;;;;;;;;5029881;28;20478;-73
2023/03/04 03:47:59;;;;;;;52.20;19.07;;;;;;;;;;5031391;28;20025;-74
2023/03/04 03:50:25;;;;;;;44.60;18.80;;;;;;;;;;5031399;28;20568;-75
2023/03/04 03:52:50;;;;;;;53.87;19.63;;;;;;;;;;5030052;28;20464;-74
2023/03/04 03:55:16;;;;;;;45.53;19.50;;;;;;;;;;5031724;28;20402;-75
2023/03/04 03:57:41;;;;;;;44.30;18.47;;;;;;;;;;5031196;28;20026;-75
2023/03/04 04:00:08;;;;;;;47.17;19.77;;;;;;;;;;5029967;28;20034;-74
2023/03/04 04:02:33;;;;;;;47.17;17.63;;;;;;;;;;5027170;28;20021;-74
2023/03/04 04:04:59;;;;;;;48.80;19.63;;;;;;;;;;5025043;28;20037;-75
2023/03/04 04:07:24;;;;;;;44.70;18.70;;;;;;;;;;5010099;28;20097;-74
2023/03/04 04:09:50;;;;;;;48.23;18.37;;;;;;;;;;5010186;28;20355;-74
2023/03/04 04:12:17;;;;;;;47.47;17.83;;;;;;;;;;5010347;28;20022;-73
2023/03/04 04:14:42;;;;;;;47.53;18.80;;;;;;;;;;5012928;28;20030;-75
2023/03/04 04:17:08;;;;;;;51.90;19.67;;;;;;;;;;5000747;28;20040;-73
2023/03/04 04:19:34;;;;;;;47.13;19.57;;;;;;;;;;5017033;28;20544;-73
2023/03/04 04:22:01;;;;;;;39.27;17.83;;;;;;;;;;5011074;28;20030;-74
2023/03/04 04:24:26;;;;;;;44.77;16.27;;;;;;;;;;5029395;28;20192;-75
2023/03/04 04:26:52;;;;;;;49.23;21.40;;;;;;;;;;5025289;28;20088;-74
2023/03/04 04:29:17;;;;;;;44.43;18.07;;;;;;;;;;5016274;28;20030;-75
2023/03/04 04:31:43;;;;;;;48.13;17.27;;;;;;;;;;5009108;28;20180;-74
2023/03/04 04:34:08;;;;;;;46.23;19.70;;;;;;;;;;5024947;28;20040;-73
2023/03/04 04:36:34;;;;;;;47.20;19.17;;;;;;;;;;5029036;28;20021;-74
2023/03/04 04:38:59;;;;;;;45.20;17.80;;;;;;;;;;5029552;28;20076;-74
2023/03/04 04:41:28;;;;;;;46.83;19.77;;;;;;;;;;5028610;28;20025;-74
2023/03/04 04:43:54;;;;;;;47.57;17.53;;;;;;;;;;5030385;28;20109;-73
2023/03/04 04:46:20;;;;;;;38.90;17.53;;;;;;;;;;5030873;28;20109;-75
2023/03/04 04:48:46;;;;;;;41.43;17.50;;;;;;;;;;5029700;28;20022;-75
2023/03/04 04:51:12;;;;;;;44.83;18.10;;;;;;;;;;5029846;28;20055;-74
2023/03/04 04:53:37;;;;;;;42.57;17.53;;;;;;;;;;5039579;28;20113;-74
2023/03/04 04:56:18;;;;;;;40.17;17.33;;;;;;;;;;5049671;28;20374;-74
2023/03/04 04:58:45;;;;;;;48.10;20.87;;;;;;;;;;5050415;28;20029;-74
2023/03/04 05:01:11;;;;;;;47.73;18.03;;;;;;;;;;5048629;28;20083;-74
2023/03/04 05:03:38;;;;;;;39.93;17.50;;;;;;;;;;5048441;28;20025;-74
2023/03/04 05:06:05;;;;;;;39.53;16.27;;;;;;;;;;5049581;28;20427;-74
2023/03/04 05:08:31;;;;;;;42.90;16.57;;;;;;;;;;5036490;28;20048;-73
2023/03/04 05:10:56;;;;;;;45.77;16.80;;;;;;;;;;5030098;28;20060;-72
2023/03/04 05:13:22;;;;;;;39.97;16.53;;;;;;;;;;5035248;28;20365;-75
2023/03/04 05:15:51;;;;;;;45.07;17.37;;;;;;;;;;5047965;28;20032;-73
2023/03/04 05:18:16;;;;;;;40.80;15.57;;;;;;;;;;5043421;28;20569;-74
2023/03/04 05:20:42;;;;;;;45.03;15.70;;;;;;;;;;5029964;28;20108;-75
2023/03/04 05:23:07;;;;;;;45.13;15.70;;;;;;;;;;5032492;28;20103;-74
2023/03/04 05:25:33;;;;;;;42.60;15.40;;;;;;;;;;5048237;28;20032;-74
2023/03/04 05:28:00;;;;;;;47.50;16.87;;;;;;;;;;5048985;28;20052;-73
2023/03/04 05:30:26;;;;;;;45.87;17.97;;;;;;;;;;5049910;28;20089;-73
2023/03/04 05:32:52;;;;;;;42.27;16.43;;;;;;;;;;5048544;28;20127;-73
2023/03/04 05:35:17;;;;;;;34.97;13.63;;;;;;;;;;5048287;28;20029;-72
2023/03/04 05:37:43;;;;;;;39.33;15.20;;;;;;;;;;5049086;28;20021;-74
2023/03/04 05:40:09;;;;;;;35.37;17.23;;;;;;;;;;5032297;28;20033;-73
2023/03/04 05:42:36;;;;;;;38.13;14.63;;;;;;;;;;5027836;28;20386;-75
2023/03/04 05:45:01;;;;;;;30.10;14.17;;;;;;;;;;5029802;28;20368;-74
2023/03/04 05:47:27;;;;;;;35.50;14.73;;;;;;;;;;5027631;28;20091;-74
2023/03/04 05:49:53;;;;;;;48.40;18.20;;;;;;;;;;5028916;28;20096;-74
2023/03/04 05:52:18;;;;;;;42.57;16.10;;;;;;;;;;5028100;28;20040;-75
2023/03/04 05:54:44;;;;;;;39.63;16.77;;;;;;;;;;5029336;28;20385;-74
2023/03/04 05:57:09;;;;;;;50.53;18.47;;;;;;;;;;5029597;28;20473;-74
2023/03/04 05:59:35;;;;;;;45.87;16.33;;;;;;;;;;5028258;28;20366;-74
2023/03/04 06:02:00;;;;;;;41.13;15.77;;;;;;;;;;5029205;28;20068;-74
2023/03/04 06:04:26;;;;;;;37.73;15.40;;;;;;;;;;5029632;28;20025;-74
2023/03/04 06:06:51;;;;;;;39.30;16.97;;;;;;;;;;5029043;28;20389;-74
2023/03/04 06:09:19;;;;;;;37.63;16.13;;;;;;;;;;5028878;28;20057;-73
2023/03/04 06:11:45;;;;;;;41.00;15.47;;;;;;;;;;5027438;28;20029;-73
2023/03/04 06:14:10;;;;;;;38.80;14.83;;;;;;;;;;5029015;28;20028;-74
2023/03/04 06:16:36;;;;;;;48.10;16.47;;;;;;;;;;5028748;28;20030;-75
2023/03/04 06:19:01;;;;;;;36.93;16.33;;;;;;;;;;5027028;28;20045;-74
2023/03/04 06:21:27;;;;;;;37.70;16.83;;;;;;;;;;5027494;28;20024;-73
2023/03/04 06:23:52;;;;;;;45.30;16.30;;;;;;;;;;5028195;28;20017;-73
2023/03/04 06:26:18;;;;;;;45.13;15.50;;;;;;;;;;5031417;28;20029;-75
2023/03/04 06:28:44;;;;;;;35.33;15.37;;;;;;;;;;5032683;28;20105;-74
2023/03/04 06:31:10;;;;;;;32.20;14.10;;;;;;;;;;5032462;28;20021;-75
2023/03/04 06:33:36;;;;;;;44.97;16.10;;;;;;;;;;5030537;28;20040;-74
2023/03/04 06:36:01;;;;;;;39.73;15.80;;;;;;;;;;5032288;28;20108;-74
2023/03/04 06:38:27;;;;;;;35.77;15.97;;;;;;;;;;5032670;28;20038;-77
2023/03/04 06:40:53;;;;;;;38.03;14.37;;;;;;;;;;5030793;28;20305;-74
2023/03/04 06:43:19;;;;;;;43.47;17.07;;;;;;;;;;5032807;28;20393;-75
2023/03/04 06:45:45;;;;;;;44.93;16.67;;;;;;;;;;5032639;28;20048;-74
2023/03/04 06:48:11;;;;;;;47.17;15.90;;;;;;;;;;5032201;28;20306;-74
2023/03/04 06:50:39;;;;;;;40.53;15.63;;;;;;;;;;5030718;28;20029;-73
2023/03/04 06:53:05;;;;;;;41.03;15.73;;;;;;;;;;5030047;28;20044;-72
2023/03/04 06:55:30;;;;;;;33.67;14.30;;;;;;;;;;5031870;28;20033;-74
2023/03/04 06:57:56;;;;;;;37.30;14.40;;;;;;;;;;5031127;28;20051;-75
2023/03/04 07:00:23;;;;;;;36.60;14.07;;;;;;;;;;5031994;28;20551;-74
2023/03/04 07:02:48;;;;;;;37.73;15.20;;;;;;;;;;5031951;28;20021;-74
2023/03/04 07:05:14;;;;;;;37.77;15.63;;;;;;;;;;5031477;28;20079;-74
2023/03/04 07:07:40;;;;;;;35.77;14.60;;;;;;;;;;5030260;28;20033;-74
2023/03/04 07:10:06;;;;;;;32.43;14.77;;;;;;;;;;5030502;28;20013;-75
2023/03/04 07:12:32;;;;;;;38.33;14.90;;;;;;;;;;5029924;28;20563;-74
2023/03/04 07:14:58;;;;;;;31.57;13.70;;;;;;;;;;5030030;28;20382;-73
2023/03/04 07:17:23;;;;;;;38.53;16.37;;;;;;;;;;5031119;28;20029;-73
2023/03/04 07:19:49;;;;;;;37.67;15.23;;;;;;;;;;5031147;28;20465;-75
2023/03/04 07:22:14;;;;;;;43.27;15.97;;;;;;;;;;5029825;28;20083;-73
2023/03/04 07:24:40;;;;;;;40.73;16.50;;;;;;;;;;5031037;28;20064;-74
2023/03/04 07:27:05;;;;;;;45.93;16.87;;;;;;;;;;5031018;28;20029;-75
2023/03/04 07:29:31;;;;;;;49.53;17.30;;;;;;;;;;5029791;28;20493;-73
2023/03/04 07:31:56;;;;;;;30.57;13.40;;;;;;;;;;5030003;28;20033;-75
2023/03/04 07:34:22;;;;;;;38.27;15.70;;;;;;;;;;5031223;28;20040;-74
2023/03/04 07:36:47;;;;;;;31.33;13.90;;;;;;;;;;5029405;28;20087;-74
2023/03/04 07:39:13;;;;;;;34.67;13.53;;;;;;;;;;5030295;28;20042;-74
2023/03/04 07:41:39;;;;;;;34.43;12.80;;;;;;;;;;5030090;28;20505;-74
2023/03/04 07:44:06;;;;;;;33.07;13.13;;;;;;;;;;5029797;28;20021;-73
2023/03/04 07:46:32;;;;;;;29.37;13.77;;;;;;;;;;5030867;28;20026;-75
2023/03/04 07:48:58;;;;;;;29.23;10.40;;;;;;;;;;5029373;28;20049;-74
2023/03/04 07:51:25;;;;;;;31.60;11.83;;;;;;;;;;5030746;28;20064;-74
2023/03/04 07:53:54;;;;;;;28.37;12.30;;;;;;;;;;5030805;28;20473;-75
2023/03/04 07:56:22;;;;;;;25.27;11.50;;;;;;;;;;5013400;28;20036;-74
2023/03/04 07:58:49;;;;;;;31.67;12.37;;;;;;;;;;5030782;28;20475;-74
2023/03/04 08:01:18;;;;;;;29.07;11.90;;;;;;;;;;4992959;28;20132;-75
2023/03/04 08:03:43;;;;;;;27.43;12.33;;;;;;;;;;5009356;28;20508;-73
2023/03/04 08:06:12;;;;;;;31.20;12.73;;;;;;;;;;5028275;28;20037;-74
2023/03/04 08:08:38;;;;;;;34.13;13.67;;;;;;;;;;5029925;28;20024;-74
2023/03/04 08:11:09;;;;;;;31.47;12.17;;;;;;;;;;5049317;28;20434;-75
2023/03/04 08:13:35;;;;;;;28.00;11.87;;;;;;;;;;5050286;28;20024;-74
2023/03/04 08:16:00;;;;;;;28.43;11.43;;;;;;;;;;5048310;28;20116;-74
2023/03/04 08:18:26;;;;;;;30.57;12.50;;;;;;;;;;5049855;28;20322;-74
2023/03/04 08:20:52;;;;;;;27.17;12.00;;;;;;;;;;5048701;28;20040;-74
2023/03/04 08:23:18;;;;;;;29.10;12.57;;;;;;;;;;5049912;28;20041;-75
2023/03/04 08:25:44;;;;;;;36.67;13.70;;;;;;;;;;5034188;28;20489;-73
2023/03/04 08:28:12;;;;;;;29.73;11.57;;;;;;;;;;5030254;28;20036;-74
2023/03/04 08:30:38;;;;;;;28.63;12.47;;;;;;;;;;5029410;28;20064;-74
2023/03/04 08:33:03;;;;;;;31.00;13.53;;;;;;;;;;5028924;28;20095;-74
2023/03/04 08:35:29;;;;;;;29.33;13.40;;;;;;;;;;5040830;28;20033;-75
2023/03/04 08:37:54;;;;;;;32.17;13.53;;;;;;;;;;5051053;28;20059;-74
2023/03/04 08:40:20;;;;;;;25.37;10.90;;;;;;;;;;5041345;28;20070;-74
2023/03/04 08:42:45;;;;;;;24.23;11.80;;;;;;;;;;5048630;28;20456;-74
2023/03/04 08:45:12;;;;;;;21.93;10.27;;;;;;;;;;5048538;28;20135;-75
2023/03/04 08:47:38;;;;;;;21.47;9.87;;;;;;;;;;5049426;28;20071;-76
2023/03/04 08:50:05;;;;;;;29.40;11.30;;;;;;;;;;5049949;28;20096;-74
2023/03/04 08:52:31;;;;;;;25.17;11.87;;;;;;;;;;5049393;28;20178;-74
2023/03/04 08:54:57;;;;;;;26.73;11.67;;;;;;;;;;5047976;28;20140;-76
2023/03/04 08:57:23;;;;;;;32.77;13.73;;;;;;;;;;5048383;28;20533;-74
2023/03/04 08:59:48;;;;;;;18.90;10.60;;;;;;;;;;5047680;28;20025;-75
2023/03/04 09:02:14;;;;;;;16.97;9.03;;;;;;;;;;5048407;28;20056;-75
2023/03/04 09:04:39;;;;;;;21.27;10.23;;;;;;;;;;5045284;28;20412;-75
2023/03/04 09:07:05;;;;;;;21.23;10.07;;;;;;;;;;5029973;28;20032;-75
2023/03/04 09:09:30;;;;;;;23.20;9.70;;;;;;;;;;5028281;28;20110;-74
2023/03/04 09:11:56;;;;;;;25.67;10.53;;;;;;;;;;5030179;28;20034;-75
2023/03/04 09:14:22;;;;;;;23.70;10.63;;;;;;;;;;5027870;28;20023;-73
2023/03/04 09:16:47;;;;;;;24.93;10.10;;;;;;;;;;5029774;28;20035;-75
2023/03/04 09:19:13;;;;;;;26.47;10.83;;;;;;;;;;5030002;28;20036;-75
2023/03/04 09:21:38;;;;;;;27.40;10.90;;;;;;;;;;5048549;28;20041;-75
2023/03/04 09:24:04;;;;;;;27.10;10.37;;;;;;;;;;5049391;28;20403;-77
2023/03/04 09:26:29;;;;;;;21.40;10.67;;;;;;;;;;5030368;28;20041;-74
2023/03/04 09:28:58;;;;;;;20.83;10.53;;;;;;;;;;5027861;28;20021;-75
2023/03/04 09:31:24;;;;;;;21.93;9.57;;;;;;;;;;5028326;28;20108;-74
2023/03/04 09:33:50;;;;;;;23.97;9.73;;;;;;;;;;5028718;28;20037;-76
2023/03/04 09:36:16;;;;;;;22.63;11.47;;;;;;;;;;5043151;28;20402;-74
2023/03/04 09:38:43;;;;;;;17.30;9.33;;;;;;;;;;5048749;28;20049;-75
2023/03/04 09:41:14;;;;;;;20.97;10.20;;;;;;;;;;5049359;28;20449;-75
2023/03/04 09:43:40;;;;;;;19.92;9.45;;;;;;;;;;5048236;28;20028;-75
2023/03/04 09:46:34;;;;;;;21.83;9.37;;;;;;;;;;5048067;28;20037;-76
2023/03/04 09:49:01;;;;;;;16.67;8.03;;;;;;;;;;5049855;28;20025;-77
2023/03/04 09:51:43;;;;;;;17.83;8.80;;;;;;;;;;5048430;28;20495;-75
2023/03/04 09:54:24;;;;;;;21.95;8.35;;;;;;;;;;5047973;28;20025;-74
2023/03/04 09:56:51;;;;;;;21.27;9.32;;;;;;;;;;5029745;28;20087;-75
2023/03/04 09:59:38;;;;;;;18.00;9.40;;;;;;;;;;5027628;28;20025;-73
2023/03/04 10:02:28;;;;;;;18.93;8.83;;;;;;;;;;5031330;28;20037;-74
2023/03/04 10:04:59;;;;;;;14.73;7.80;;;;;;;;;;5033419;28;20104;-74
2023/03/04 10:07:35;;;;;;;21.80;8.15;;;;;;;;;;5031027;28;20032;-76
2023/03/04 10:10:15;;;;;;;19.67;8.77;;;;;;;;;;5033111;28;20410;-75
2023/03/04 10:12:44;;;;;;;19.57;8.77;;;;;;;;;;5031649;28;20024;-75
2023/03/04 10:15:39;;;;;;;15.60;8.10;;;;;;;;;;5032230;28;20029;-74
2023/03/04 10:18:31;;;;;;;15.90;8.80;;;;;;;;;;5031485;28;20017;-75
2023/03/04 10:21:30;;;;;;;20.38;9.88;;;;;;;;;;5031530;28;20120;-76
2023/03/04 10:23:57;;;;;;;16.50;8.20;;;;;;;;;;5032301;28;20038;-73
2023/03/04 10:26:27;;;;;;;18.50;8.77;;;;;;;;;;5031458;28;20118;-74
2023/03/04 10:28:53;;;;;;;23.37;11.20;;;;;;;;;;5033097;28;20033;-75
2023/03/04 10:31:28;;;;;;;28.87;11.40;;;;;;;;;;5043443;28;20106;-74
2023/03/04 10:33:54;;;;;;;19.77;8.60;;;;;;;;;;5051172;28;20119;-75
2023/03/04 10:36:28;;;;;;;18.07;9.87;;;;;;;;;;5052056;28;20495;-74
2023/03/04 10:39:25;;;;;;;18.97;8.63;;;;;;;;;;5045378;28;20041;-74
2023/03/04 10:42:21;;;;;;;19.83;8.97;;;;;;;;;;5048970;28;20025;-74
2023/03/04 10:44:55;;;;;;;17.73;9.67;;;;;;;;;;5052496;28;20045;-74
2023/03/04 10:47:30;;;;;;;19.30;9.43;;;;;;;;;;5052365;28;20024;-74
2023/03/04 10:50:01;;;;;;;25.97;9.63;;;;;;;;;;5051295;28;20025;-74
2023/03/04 10:52:59;;;;;;;21.47;9.10;;;;;;;;;;5052389;28;20077;-74
2023/03/04 10:55:28;;;;;;;16.63;9.03;;;;;;;;;;5047430;28;20037;-75
2023/03/04 10:58:03;;;;;;;13.70;7.27;;;;;;;;;;5032704;28;20385;-74
2023/03/04 11:00:32;;;;;;;15.93;7.63;;;;;;;;;;5035622;28;20032;-74
2023/03/04 11:03:16;;;;;;;22.37;8.33;;;;;;;;;;5051003;28;20302;-74
2023/03/04 11:05:43;;;;;;;20.20;8.20;;;;;;;;;;5052335;28;20017;-75
2023/03/04 11:08:19;;;;;;;15.23;7.67;;;;;;;;;;5050149;28;20033;-74
2023/03/04 11:10:45;;;;;;;15.83;7.40;;;;;;;;;;5044730;28;20175;-74
2023/03/04 11:13:10;;;;;;;15.87;8.17;;;;;;;;;;5030470;28;20533;-77
2023/03/04 11:15:56;;;;;;;20.17;7.43;;;;;;;;;;5036378;28;20505;-76
2023/03/04 11:18:30;;;;;;;14.90;7.93;;;;;;;;;;5049731;28;20029;-74
2023/03/04 11:20:58;;;;;;;17.23;8.40;;;;;;;;;;5044774;28;20025;-74
2023/03/04 11:23:44;;;;;;;20.27;8.53;;;;;;;;;;5031548;28;20033;-75
2023/03/04 11:26:16;;;;;;;18.77;9.13;;;;;;;;;;5031602;28;20436;-74
2023/03/04 11:28:50;;;;;;;14.88;7.38;;;;;;;;;;5031276;28;20025;-75
2023/03/04 11:31:20;;;;;;;14.57;7.67;;;;;;;;;;5031447;28;20036;-73
2023/03/04 11:33:50;;;;;;;13.97;7.40;;;;;;;;;;5031481;28;20041;-73
2023/03/04 11:36:46;;;;;;;17.07;8.13;;;;;;;;;;5029728;28;20124;-76
2023/03/04 11:39:30;;;;;;;17.03;7.70;;;;;;;;;;5029479;28;20050;-74
2023/03/04 11:42:06;;;;;;;19.60;8.13;;;;;;;;;;5029754;28;20044;-74
2023/03/04 11:44:32;;;;;;;12.93;6.57;;;;;;;;;;5030594;28;20378;-75
2023/03/04 11:47:12;;;;;;;13.20;7.63;;;;;;;;;;5032014;28;20037;-76
2023/03/04 11:49:58;;;;;;;22.40;8.47;;;;;;;;;;5031977;28;20025;-75
2023/03/04 11:52:35;;;;;;;18.73;8.47;;;;;;;;;;5046651;28;20119;-74
2023/03/04 11:55:25;;;;;;;17.73;7.50;;;;;;;;;;5051650;28;20033;-74
2023/03/04 11:58:00;;;;;;;12.50;7.10;;;;;;;;;;5012141;28;20034;-75
2023/03/04 12:00:43;;;;;;;14.73;7.40;;;;;;;;;;5011315;28;20496;-76
2023/03/04 12:03:30;;;;;;;16.83;7.60;;;;;;;;;;5049323;28;20025;-74
2023/03/04 12:06:27;;;;;;;11.47;7.13;;;;;;;;;;5047113;28;20025;-75
2023/03/04 12:09:27;;;;;;;17.13;7.13;;;;;;;;;;5029417;28;20432;-74
2023/03/04 12:12:17;;;;;;;20.50;7.70;;;;;;;;;;5041181;28;20219;-74
2023/03/04 12:14:48;;;;;;;12.23;6.97;;;;;;;;;;5049467;28;20430;-75
2023/03/04 12:17:29;;;;;;;9.80;6.17;;;;;;;;;;5050590;28;20162;-75
2023/03/04 12:20:19;;;;;;;12.90;6.90;;;;;;;;;;5050968;28;20033;-75
2023/03/04 12:22:51;;;;;;;13.80;7.00;;;;;;;;;;5048585;28;20032;-74
2023/03/04 12:25:44;;;;;;;10.98;6.90;;;;;;;;;;5049225;28;20075;-75
2023/03/04 12:28:28;;;;;;;15.40;7.23;;;;;;;;;;5010792;28;20117;-75
2023/03/04 12:31:15;;;;;;;15.17;6.90;;;;;;;;;;5012351;28;20524;-75
2023/03/04 12:34:07;;;;;;;14.30;7.00;;;;;;;;;;5030549;28;20151;-74
2023/03/04 12:37:10;;;;;;;16.00;7.75;;;;;;;;;;5029099;28;20073;-74
2023/03/04 12:39:46;;;;;;;16.80;6.93;;;;;;;;;;5030045;28;20060;-74
2023/03/04 12:42:18;;;;;;;16.93;7.27;;;;;;;;;;5041547;28;20047;-77
2023/03/04 12:45:03;;;;;;;16.42;6.72;;;;;;;;;;5049730;28;20057;-75
2023/03/04 12:47:34;;;;;;;13.37;6.80;;;;;;;;;;5036047;28;20385;-74
2023/03/04 12:50:37;;;;;;;12.23;6.47;;;;;;;;;;5030646;28;20044;-75
2023/03/04 12:53:14;;;;;;;9.23;5.83;;;;;;;;;;5028341;28;20471;-74
2023/03/04 12:55:43;;;;;;;13.13;6.67;;;;;;;;;;5028626;28;20037;-76
2023/03/04 12:58:19;;;;;;;12.73;6.97;;;;;;;;;;5028785;28;20128;-76
2023/03/04 13:00:57;;;;;;;13.33;6.80;;;;;;;;;;5030111;28;20114;-76
2023/03/04 13:03:47;;;;;;;14.20;6.30;;;;;;;;;;5030916;28;20044;-75
2023/03/04 13:06:30;;;;;;;11.03;5.80;;;;;;;;;;5030146;28;20049;-76
2023/03/04 13:09:11;;;;;;;12.80;6.57;;;;;;;;;;5029467;28;20036;-75
2023/03/04 13:11:48;;;;;;;9.87;5.77;;;;;;;;;;5036053;28;20381;-75
2023/03/04 13:14:16;;;;;;;10.37;6.20;;;;;;;;;;5048715;28;20052;-75
2023/03/04 13:16:45;;;;;;;10.03;5.00;;;;;;;;;;5048190;28;20029;-74
2023/03/04 13:19:43;;;;;;;15.13;5.13;;;;;;;;;;5048471;28;20035;-75
2023/03/04 13:22:43;;;;;;;10.47;5.20;;;;;;;;;;5038271;28;20021;-75
2023/03/04 13:25:27;;;;;;;7.47;4.20;;;;;;;;;;5030042;28;20017;-75
2023/03/04 13:28:02;;;;;;;15.93;5.37;;;;;;;;;;5029418;28;20033;-74
2023/03/04 13:30:30;;;;;;;10.07;5.07;;;;;;;;;;5029333;28;20053;-73
2023/03/04 13:33:16;;;;;;;10.13;5.23;;;;;;;;;;5043926;28;20041;-75
2023/03/04 13:35:48;;;;;;;8.00;4.10;;;;;;;;;;5037625;28;20095;-76
2023/03/04 13:38:33;;;;;;;5.77;3.27;;;;;;;;;;5048637;28;20114;-74
2023/03/04 13:41:27;;;;;;;6.63;2.77;;;;;;;;;;5029942;28;20080;-73
2023/03/04 13:44:19;;;;;;;3.63;2.27;;;;;;;;;;5012249;28;20037;-75
2023/03/04 13:46:44;;;;;;;6.43;2.47;;;;;;;;;;5032184;28;20460;-76
2023/03/04 13:49:25;;;;;;;7.43;2.50;;;;;;;;;;5047583;28;20063;-74
2023/03/04 13:51:51;;;;;;;2.33;2.13;;;;;;;;;;5026739;28;20030;-74
2023/03/04 13:54:30;;;;;;;5.50;2.53;;;;;;;;;;5028863;28;20037;-76
2023/03/04 13:56:59;;;;;;;3.43;2.77;;;;;;;;;;5035742;28;20376;-75
2023/03/04 13:59:28;;;;;;;6.00;2.40;;;;;;;;;;5049260;28;20453;-75
2023/03/04 14:02:10;;;;;;;6.53;2.40;;;;;;;;;;5047743;28;20028;-74
2023/03/04 14:04:41;;;;;;;3.65;2.42;;;;;;;;;;5049537;28;20033;-76
2023/03/04 14:07:28;;;;;;;3.37;2.60;;;;;;;;;;5048997;28;20080;-76
2023/03/04 14:10:04;;;;;;;5.23;2.77;;;;;;;;;;5049034;28;20044;-74
2023/03/04 14:12:35;;;;;;;2.43;2.10;;;;;;;;;;5037872;28;20604;-74
2023/03/04 14:15:13;;;;;;;5.83;1.93;;;;;;;;;;5029675;28;20079;-73
2023/03/04 14:17:40;;;;;;;5.80;2.20;;;;;;;;;;5038640;28;20029;-74
2023/03/04 14:20:35;;;;;;;3.53;2.20;;;;;;;;;;5047800;28;20525;-75
2023/03/04 14:23:21;;;;;;;4.17;2.23;;;;;;;;;;5047337;28;20040;-74
2023/03/04 14:25:46;;;;;;;6.23;2.30;;;;;;;;;;5047664;28;20032;-75
2023/03/04 14:28:17;;;;;;;10.97;2.20;;;;;;;;;;5032692;28;20036;-74
2023/03/04 14:30:55;;;;;;;5.28;2.05;;;;;;;;;;5029596;28;20030;-75
2023/03/04 14:33:26;;;;;;;4.40;1.80;;;;;;;;;;5027533;28;20041;-76
2023/03/04 14:35:58;;;;;;;4.75;1.77;;;;;;;;;;5029571;28;20037;-74
2023/03/04 14:38:30;;;;;;;2.88;1.60;;;;;;;;;;5044381;28;20075;-74
2023/03/04 14:41:10;;;;;;;5.00;2.20;;;;;;;;;;5049217;28;20032;-75